sensor_id;sensor_type;location;lat;lon;timestamp;pressure;altitude;pressure_sealevel;temperature;humidity
15646;BME280;7922;43.622;1.476;2023-06-14T00:01:07;99544.16;;;17.19;100.00
15646;BME280;7922;43.622;1.476;2023-06-14T00:03:32;99562.44;;;17.25;100.00
15646;BME280;7922;43.622;1.476;2023-06-14T00:05:58;99529.66;;;17.11;100.00
15646;BME280;7922;43.622;1.476;2023-06-14T00:08:23;99549.47;;;17.08;100.00
15646;BME280;7922;43.622;1.476;2023-06-14T00:10:48;99591.78;;;17.38;100.00
15646;BME280;7922;43.622;1.476;2023-06-14T00:13:14;99627.13;;;17.54;100.00
15646;BME280;7922;43.622;1.476;2023-06-14T00:15:39;99569.72;;;17.23;100.00
15646;BME280;7922;43.622;1.476;2023-06-14T00:18:04;99517.56;;;16.94;100.00
15646;BME280;7922;43.622;1.476;2023-06-14T00:20:31;99475.59;;;16.83;100.00
15646;BME280;7922;43.622;1.476;2023-06-14T00:22:57;99597.31;;;17.59;100.00
15646;BME280;7922;43.622;1.476;2023-06-14T00:25:23;99603.66;;;17.58;100.00
15646;BME280;7922;43.622;1.476;2023-06-14T00:27:48;99426.50;;;16.60;100.00
15646;BME280;7922;43.622;1.476;2023-06-14T00:30:14;99542.34;;;17.31;100.00
15646;BME280;7922;43.622;1.476;2023-06-14T00:32:39;99568.19;;;17.43;100.00
15646;BME280;7922;43.622;1.476;2023-06-14T00:35:05;99569.75;;;17.46;100.00
15646;BME280;7922;43.622;1.476;2023-06-14T00:37:30;99555.88;;;17.41;100.00
15646;BME280;7922;43.622;1.476;2023-06-14T00:39:55;99514.31;;;17.13;100.00
15646;BME280;7922;43.622;1.476;2023-06-14T00:42:25;99508.88;;;17.14;100.00
15646;BME280;7922;43.622;1.476;2023-06-14T00:44:50;99595.25;;;17.63;100.00
15646;BME280;7922;43.622;1.476;2023-06-14T00:47:16;99554.06;;;17.41;100.00
15646;BME280;7922;43.622;1.476;2023-06-14T00:49:41;99573.88;;;17.39;100.00
15646;BME280;7922;43.622;1.476;2023-06-14T00:52:07;99564.91;;;17.40;100.00
15646;BME280;7922;43.622;1.476;2023-06-14T00:54:32;99590.59;;;17.53;100.00
15646;BME280;7922;43.622;1.476;2023-06-14T00:56:57;99615.31;;;17.68;100.00
15646;BME280;7922;43.622;1.476;2023-06-14T00:59:23;99584.53;;;17.63;100.00
15646;BME280;7922;43.622;1.476;2023-06-14T01:01:48;99608.22;;;17.80;100.00
15646;BME280;7922;43.622;1.476;2023-06-14T01:04:14;99539.22;;;17.37;100.00
15646;BME280;7922;43.622;1.476;2023-06-14T01:07:31;99605.16;;;17.85;100.00
15646;BME280;7922;43.622;1.476;2023-06-14T01:13:20;99584.41;;;17.64;100.00
15646;BME280;7922;43.622;1.476;2023-06-14T01:15:47;99528.25;;;17.40;100.00
15646;BME280;7922;43.622;1.476;2023-06-14T01:18:13;99585.00;;;17.68;100.00
15646;BME280;7922;43.622;1.476;2023-06-14T01:20:39;99463.31;;;16.92;100.00
15646;BME280;7922;43.622;1.476;2023-06-14T01:23:04;99521.16;;;17.28;100.00
15646;BME280;7922;43.622;1.476;2023-06-14T01:25:30;99554.22;;;17.51;100.00
15646;BME280;7922;43.622;1.476;2023-06-14T01:28:00;99569.22;;;17.65;100.00
15646;BME280;7922;43.622;1.476;2023-06-14T01:30:26;99526.31;;;17.42;100.00
15646;BME280;7922;43.622;1.476;2023-06-14T01:32:54;99516.19;;;17.35;100.00
15646;BME280;7922;43.622;1.476;2023-06-14T01:35:20;99541.53;;;17.42;100.00
15646;BME280;7922;43.622;1.476;2023-06-14T01:37:47;99590.75;;;17.74;100.00
15646;BME280;7922;43.622;1.476;2023-06-14T01:40:14;99540.53;;;17.43;100.00
15646;BME280;7922;43.622;1.476;2023-06-14T01:42:40;99499.41;;;17.21;100.00
15646;BME280;7922;43.622;1.476;2023-06-14T01:45:07;99552.84;;;17.45;100.00
15646;BME280;7922;43.622;1.476;2023-06-14T01:47:33;99567.59;;;17.51;100.00
15646;BME280;7922;43.622;1.476;2023-06-14T01:49:59;99564.16;;;17.49;100.00
15646;BME280;7922;43.622;1.476;2023-06-14T01:52:24;99554.06;;;17.41;100.00
15646;BME280;7922;43.622;1.476;2023-06-14T01:54:52;99540.66;;;17.30;100.00
15646;BME280;7922;43.622;1.476;2023-06-14T01:57:17;99534.22;;;17.32;100.00
15646;BME280;7922;43.622;1.476;2023-06-14T01:59:43;99523.00;;;17.27;100.00
15646;BME280;7922;43.622;1.476;2023-06-14T02:02:08;99562.84;;;17.43;100.00
15646;BME280;7922;43.622;1.476;2023-06-14T02:04:33;99611.00;;;17.78;100.00
15646;BME280;7922;43.622;1.476;2023-06-14T02:06:59;99578.06;;;17.54;100.00
15646;BME280;7922;43.622;1.476;2023-06-14T02:09:24;99615.00;;;17.73;100.00
15646;BME280;7922;43.622;1.476;2023-06-14T02:11:50;99576.34;;;17.53;100.00
15646;BME280;7922;43.622;1.476;2023-06-14T02:14:15;99538.97;;;17.40;100.00
15646;BME280;7922;43.622;1.476;2023-06-14T02:16:40;99615.41;;;17.79;100.00
15646;BME280;7922;43.622;1.476;2023-06-14T02:19:06;99403.38;;;16.59;100.00
15646;BME280;7922;43.622;1.476;2023-06-14T02:21:31;99568.69;;;17.48;100.00
15646;BME280;7922;43.622;1.476;2023-06-14T02:23:56;99523.13;;;17.26;100.00
15646;BME280;7922;43.622;1.476;2023-06-14T02:26:22;99541.53;;;17.42;100.00
15646;BME280;7922;43.622;1.476;2023-06-14T02:28:47;99517.16;;;17.22;100.00
15646;BME280;7922;43.622;1.476;2023-06-14T02:31:12;99563.94;;;17.52;100.00
15646;BME280;7922;43.622;1.476;2023-06-14T02:33:37;99545.41;;;17.38;100.00
15646;BME280;7922;43.622;1.476;2023-06-14T02:36:03;99457.00;;;16.81;100.00
15646;BME280;7922;43.622;1.476;2023-06-14T02:38:28;99526.16;;;17.21;100.00
15646;BME280;7922;43.622;1.476;2023-06-14T02:40:53;99599.75;;;17.62;100.00
15646;BME280;7922;43.622;1.476;2023-06-14T02:43:19;99465.97;;;16.80;100.00
15646;BME280;7922;43.622;1.476;2023-06-14T02:45:44;99591.59;;;17.64;100.00
15646;BME280;7922;43.622;1.476;2023-06-14T02:48:09;99575.72;;;17.38;100.00
15646;BME280;7922;43.622;1.476;2023-06-14T02:50:34;99604.50;;;17.59;100.00
15646;BME280;7922;43.622;1.476;2023-06-14T02:53:00;99568.75;;;17.36;100.00
15646;BME280;7922;43.622;1.476;2023-06-14T02:55:25;99572.56;;;17.44;100.00
15646;BME280;7922;43.622;1.476;2023-06-14T02:57:51;99519.69;;;17.13;100.00
15646;BME280;7922;43.622;1.476;2023-06-14T03:00:16;99602.19;;;17.54;100.00
15646;BME280;7922;43.622;1.476;2023-06-14T03:02:41;99548.31;;;17.23;100.00
15646;BME280;7922;43.622;1.476;2023-06-14T03:05:07;99553.88;;;17.20;100.00
15646;BME280;7922;43.622;1.476;2023-06-14T03:07:32;99474.47;;;16.74;100.00
15646;BME280;7922;43.622;1.476;2023-06-14T03:09:58;99503.56;;;16.90;100.00
15646;BME280;7922;43.622;1.476;2023-06-14T03:12:23;99580.69;;;17.31;100.00
15646;BME280;7922;43.622;1.476;2023-06-14T03:14:48;99551.81;;;17.13;100.00
15646;BME280;7922;43.622;1.476;2023-06-14T03:17:14;99499.53;;;16.84;100.00
15646;BME280;7922;43.622;1.476;2023-06-14T03:19:39;99566.19;;;17.23;100.00
15646;BME280;7922;43.622;1.476;2023-06-14T03:22:04;99553.63;;;17.12;100.00
15646;BME280;7922;43.622;1.476;2023-06-14T03:24:29;99591.66;;;17.28;100.00
15646;BME280;7922;43.622;1.476;2023-06-14T03:26:55;99534.38;;;16.96;100.00
15646;BME280;7922;43.622;1.476;2023-06-14T03:29:20;99600.00;;;17.24;100.00
15646;BME280;7922;43.622;1.476;2023-06-14T03:32:15;99618.56;;;17.38;100.00
15646;BME280;7922;43.622;1.476;2023-06-14T03:34:40;99579.78;;;17.08;100.00
15646;BME280;7922;43.622;1.476;2023-06-14T03:37:06;99575.25;;;17.09;100.00
15646;BME280;7922;43.622;1.476;2023-06-14T03:39:31;99482.94;;;16.44;100.00
15646;BME280;7922;43.622;1.476;2023-06-14T03:41:56;99582.69;;;17.05;100.00
15646;BME280;7922;43.622;1.476;2023-06-14T03:44:21;99582.56;;;17.07;100.00
15646;BME280;7922;43.622;1.476;2023-06-14T03:46:47;99573.00;;;16.92;100.00
15646;BME280;7922;43.622;1.476;2023-06-14T03:49:12;99632.03;;;17.25;100.00
15646;BME280;7922;43.622;1.476;2023-06-14T03:51:38;99603.59;;;17.00;100.00
15646;BME280;7922;43.622;1.476;2023-06-14T03:54:03;99522.47;;;16.52;100.00
15646;BME280;7922;43.622;1.476;2023-06-14T03:56:28;99630.63;;;17.08;100.00
15646;BME280;7922;43.622;1.476;2023-06-14T03:58:54;99621.00;;;17.06;100.00
15646;BME280;7922;43.622;1.476;2023-06-14T04:01:19;99567.97;;;16.76;100.00
15646;BME280;7922;43.622;1.476;2023-06-14T04:03:45;99600.38;;;16.95;100.00
15646;BME280;7922;43.622;1.476;2023-06-14T04:06:10;99521.13;;;16.46;100.00
15646;BME280;7922;43.622;1.476;2023-06-14T04:08:35;99604.66;;;16.98;100.00
15646;BME280;7922;43.622;1.476;2023-06-14T04:11:01;99546.94;;;16.58;100.00
15646;BME280;7922;43.622;1.476;2023-06-14T04:13:26;99658.59;;;17.28;100.00
15646;BME280;7922;43.622;1.476;2023-06-14T04:15:52;99624.28;;;17.09;100.00
15646;BME280;7922;43.622;1.476;2023-06-14T04:18:17;99616.16;;;17.11;100.00
15646;BME280;7922;43.622;1.476;2023-06-14T04:20:42;99608.94;;;17.00;100.00
15646;BME280;7922;43.622;1.476;2023-06-14T04:23:15;99521.28;;;16.56;100.00
15646;BME280;7922;43.622;1.476;2023-06-14T04:25:40;99507.84;;;16.45;100.00
15646;BME280;7922;43.622;1.476;2023-06-14T04:28:06;99630.16;;;17.15;100.00
15646;BME280;7922;43.622;1.476;2023-06-14T04:30:31;99508.38;;;16.50;100.00
15646;BME280;7922;43.622;1.476;2023-06-14T04:32:57;99608.72;;;17.03;100.00
15646;BME280;7922;43.622;1.476;2023-06-14T04:35:22;99561.41;;;16.80;100.00
15646;BME280;7922;43.622;1.476;2023-06-14T04:37:47;99626.78;;;17.24;100.00
15646;BME280;7922;43.622;1.476;2023-06-14T04:40:13;99632.88;;;17.26;100.00
15646;BME280;7922;43.622;1.476;2023-06-14T04:42:38;99534.31;;;16.60;100.00
15646;BME280;7922;43.622;1.476;2023-06-14T04:45:04;99574.13;;;16.89;100.00
15646;BME280;7922;43.622;1.476;2023-06-14T04:47:29;99638.59;;;17.21;100.00
15646;BME280;7922;43.622;1.476;2023-06-14T04:49:58;99601.06;;;17.10;100.00
15646;BME280;7922;43.622;1.476;2023-06-14T04:52:24;99625.22;;;17.21;100.00
15646;BME280;7922;43.622;1.476;2023-06-14T04:54:49;99559.72;;;16.79;100.00
15646;BME280;7922;43.622;1.476;2023-06-14T04:57:14;99625.28;;;17.08;100.00
15646;BME280;7922;43.622;1.476;2023-06-14T04:59:40;99621.16;;;17.16;100.00
15646;BME280;7922;43.622;1.476;2023-06-14T05:02:05;99634.59;;;17.27;100.00
15646;BME280;7922;43.622;1.476;2023-06-14T05:04:31;99629.06;;;17.17;100.00
15646;BME280;7922;43.622;1.476;2023-06-14T05:06:56;99611.44;;;17.15;100.00
15646;BME280;7922;43.622;1.476;2023-06-14T05:09:21;99566.03;;;16.78;100.00
15646;BME280;7922;43.622;1.476;2023-06-14T05:11:47;99652.88;;;17.33;100.00
15646;BME280;7922;43.622;1.476;2023-06-14T05:14:12;99668.00;;;17.45;100.00
15646;BME280;7922;43.622;1.476;2023-06-14T05:16:37;99654.22;;;17.39;100.00
15646;BME280;7922;43.622;1.476;2023-06-14T05:19:03;99640.56;;;17.30;100.00
15646;BME280;7922;43.622;1.476;2023-06-14T05:21:28;99556.81;;;16.82;100.00
15646;BME280;7922;43.622;1.476;2023-06-14T05:23:53;99645.28;;;17.27;100.00
15646;BME280;7922;43.622;1.476;2023-06-14T05:26:19;99688.53;;;17.69;100.00
15646;BME280;7922;43.622;1.476;2023-06-14T05:28:44;99639.47;;;17.33;100.00
15646;BME280;7922;43.622;1.476;2023-06-14T05:31:09;99577.81;;;16.99;100.00
15646;BME280;7922;43.622;1.476;2023-06-14T05:33:35;99602.44;;;17.16;100.00
15646;BME280;7922;43.622;1.476;2023-06-14T05:36:00;99669.84;;;17.56;100.00
15646;BME280;7922;43.622;1.476;2023-06-14T05:38:25;99697.03;;;17.63;100.00
15646;BME280;7922;43.622;1.476;2023-06-14T05:40:50;99694.19;;;17.77;100.00
15646;BME280;7922;43.622;1.476;2023-06-14T05:43:16;99684.44;;;17.76;100.00
15646;BME280;7922;43.622;1.476;2023-06-14T05:45:41;99660.03;;;17.68;100.00
15646;BME280;7922;43.622;1.476;2023-06-14T05:48:06;99643.31;;;17.53;100.00
15646;BME280;7922;43.622;1.476;2023-06-14T05:50:32;99580.56;;;17.22;100.00
15646;BME280;7922;43.622;1.476;2023-06-14T05:52:57;99724.78;;;17.97;100.00
15646;BME280;7922;43.622;1.476;2023-06-14T05:55:22;99710.06;;;17.91;100.00
15646;BME280;7922;43.622;1.476;2023-06-14T05:57:48;99689.25;;;17.71;100.00
15646;BME280;7922;43.622;1.476;2023-06-14T06:00:14;99652.78;;;17.46;100.00
15646;BME280;7922;43.622;1.476;2023-06-14T06:02:41;99633.78;;;17.38;100.00
15646;BME280;7922;43.622;1.476;2023-06-14T06:05:06;99683.41;;;17.66;100.00
15646;BME280;7922;43.622;1.476;2023-06-14T06:07:32;99643.28;;;17.42;100.00
15646;BME280;7922;43.622;1.476;2023-06-14T06:09:57;99647.56;;;17.44;100.00
15646;BME280;7922;43.622;1.476;2023-06-14T06:12:22;99700.25;;;17.79;100.00
15646;BME280;7922;43.622;1.476;2023-06-14T06:14:48;99699.78;;;17.85;100.00
15646;BME280;7922;43.622;1.476;2023-06-14T06:17:13;99757.50;;;18.24;100.00
15646;BME280;7922;43.622;1.476;2023-06-14T06:19:38;99722.66;;;18.13;100.00
15646;BME280;7922;43.622;1.476;2023-06-14T06:22:04;99604.25;;;17.50;100.00
15646;BME280;7922;43.622;1.476;2023-06-14T06:24:29;99647.84;;;17.75;100.00
15646;BME280;7922;43.622;1.476;2023-06-14T06:26:54;99723.63;;;18.23;100.00
15646;BME280;7922;43.622;1.476;2023-06-14T06:29:19;99669.84;;;17.91;100.00
15646;BME280;7922;43.622;1.476;2023-06-14T06:31:45;99726.31;;;18.35;100.00
15646;BME280;7922;43.622;1.476;2023-06-14T06:34:10;99721.28;;;18.19;100.00
15646;BME280;7922;43.622;1.476;2023-06-14T06:36:35;99660.81;;;17.81;100.00
15646;BME280;7922;43.622;1.476;2023-06-14T06:39:00;99727.63;;;18.18;100.00
15646;BME280;7922;43.622;1.476;2023-06-14T06:41:26;99753.25;;;18.33;100.00
15646;BME280;7922;43.622;1.476;2023-06-14T06:43:51;99692.38;;;17.89;100.00
15646;BME280;7922;43.622;1.476;2023-06-14T06:46:16;99676.91;;;17.81;100.00
15646;BME280;7922;43.622;1.476;2023-06-14T06:48:42;99637.63;;;17.69;100.00
15646;BME280;7922;43.622;1.476;2023-06-14T06:51:07;99752.91;;;18.38;100.00
15646;BME280;7922;43.622;1.476;2023-06-14T06:53:32;99674.88;;;17.72;100.00
15646;BME280;7922;43.622;1.476;2023-06-14T06:55:57;99765.19;;;18.40;100.00
15646;BME280;7922;43.622;1.476;2023-06-14T06:58:23;99657.97;;;17.71;100.00
15646;BME280;7922;43.622;1.476;2023-06-14T07:00:48;99754.09;;;18.34;100.00
15646;BME280;7922;43.622;1.476;2023-06-14T07:03:13;99818.53;;;18.67;100.00
15646;BME280;7922;43.622;1.476;2023-06-14T07:05:38;99765.44;;;18.37;100.00
15646;BME280;7922;43.622;1.476;2023-06-14T07:08:04;99759.59;;;18.32;100.00
15646;BME280;7922;43.622;1.476;2023-06-14T07:10:29;99750.81;;;18.30;100.00
15646;BME280;7922;43.622;1.476;2023-06-14T07:12:54;99817.91;;;18.64;100.00
15646;BME280;7922;43.622;1.476;2023-06-14T07:15:20;99784.59;;;18.44;100.00
15646;BME280;7922;43.622;1.476;2023-06-14T07:17:45;99700.06;;;17.93;100.00
15646;BME280;7922;43.622;1.476;2023-06-14T07:20:12;99663.72;;;17.78;100.00
15646;BME280;7922;43.622;1.476;2023-06-14T07:22:39;99802.19;;;18.59;100.00
15646;BME280;7922;43.622;1.476;2023-06-14T07:25:04;99714.84;;;18.21;100.00
15646;BME280;7922;43.622;1.476;2023-06-14T07:27:30;99811.50;;;18.78;100.00
15646;BME280;7922;43.622;1.476;2023-06-14T07:29:55;99671.78;;;17.89;100.00
15646;BME280;7922;43.622;1.476;2023-06-14T07:32:20;99696.06;;;18.10;100.00
15646;BME280;7922;43.622;1.476;2023-06-14T07:34:45;99793.25;;;18.70;100.00
15646;BME280;7922;43.622;1.476;2023-06-14T07:37:11;99836.50;;;19.12;100.00
15646;BME280;7922;43.622;1.476;2023-06-14T07:39:36;99737.53;;;18.62;100.00
15646;BME280;7922;43.622;1.476;2023-06-14T07:42:02;99819.91;;;19.07;100.00
15646;BME280;7922;43.622;1.476;2023-06-14T07:44:29;99841.84;;;19.23;100.00
15646;BME280;7922;43.622;1.476;2023-06-14T07:46:54;99732.91;;;18.53;100.00
15646;BME280;7922;43.622;1.476;2023-06-14T07:49:20;99827.97;;;19.07;100.00
15646;BME280;7922;43.622;1.476;2023-06-14T07:51:45;99731.09;;;18.42;100.00
15646;BME280;7922;43.622;1.476;2023-06-14T07:54:10;99716.44;;;18.46;100.00
15646;BME280;7922;43.622;1.476;2023-06-14T07:56:35;99743.25;;;18.69;100.00
15646;BME280;7922;43.622;1.476;2023-06-14T07:59:01;99737.91;;;18.69;100.00
15646;BME280;7922;43.622;1.476;2023-06-14T08:01:26;99745.09;;;18.91;100.00
15646;BME280;7922;43.622;1.476;2023-06-14T08:03:51;99849.88;;;19.45;100.00
15646;BME280;7922;43.622;1.476;2023-06-14T08:06:16;99806.09;;;19.22;100.00
15646;BME280;7922;43.622;1.476;2023-06-14T08:08:42;99766.06;;;19.19;100.00
15646;BME280;7922;43.622;1.476;2023-06-14T08:11:07;99864.47;;;19.75;100.00
15646;BME280;7922;43.622;1.476;2023-06-14T08:13:32;99738.53;;;18.72;100.00
15646;BME280;7922;43.622;1.476;2023-06-14T08:15:58;99862.56;;;19.66;100.00
15646;BME280;7922;43.622;1.476;2023-06-14T08:18:23;99864.19;;;19.89;100.00
15646;BME280;7922;43.622;1.476;2023-06-14T08:20:49;99823.81;;;19.80;100.00
15646;BME280;7922;43.622;1.476;2023-06-14T08:23:14;99830.13;;;19.79;100.00
15646;BME280;7922;43.622;1.476;2023-06-14T08:25:39;99844.81;;;20.07;100.00
15646;BME280;7922;43.622;1.476;2023-06-14T08:28:04;99776.78;;;19.74;100.00
15646;BME280;7922;43.622;1.476;2023-06-14T08:30:30;99737.38;;;19.52;100.00
15646;BME280;7922;43.622;1.476;2023-06-14T08:32:55;99776.84;;;19.52;100.00
15646;BME280;7922;43.622;1.476;2023-06-14T08:35:21;99780.16;;;19.44;100.00
15646;BME280;7922;43.622;1.476;2023-06-14T08:37:46;99765.34;;;19.49;100.00
15646;BME280;7922;43.622;1.476;2023-06-14T08:40:22;99794.78;;;19.51;100.00
15646;BME280;7922;43.622;1.476;2023-06-14T08:42:50;99847.34;;;19.87;100.00
15646;BME280;7922;43.622;1.476;2023-06-14T08:45:16;99818.63;;;19.88;100.00
15646;BME280;7922;43.622;1.476;2023-06-14T08:47:41;99778.28;;;19.67;100.00
15646;BME280;7922;43.622;1.476;2023-06-14T08:50:07;99750.75;;;19.75;100.00
15646;BME280;7922;43.622;1.476;2023-06-14T08:52:36;99855.31;;;20.63;100.00
15646;BME280;7922;43.622;1.476;2023-06-14T08:55:03;99861.13;;;20.47;100.00
15646;BME280;7922;43.622;1.476;2023-06-14T08:57:28;99846.78;;;20.58;100.00
15646;BME280;7922;43.622;1.476;2023-06-14T08:59:54;99769.78;;;20.46;98.59
15646;BME280;7922;43.622;1.476;2023-06-14T09:02:20;99834.41;;;20.76;98.84
15646;BME280;7922;43.622;1.476;2023-06-14T09:04:45;99857.72;;;21.18;98.11
15646;BME280;7922;43.622;1.476;2023-06-14T09:07:11;99782.31;;;20.87;96.82
15646;BME280;7922;43.622;1.476;2023-06-14T09:09:40;99804.16;;;20.42;98.31
15646;BME280;7922;43.622;1.476;2023-06-14T09:12:08;99786.88;;;20.56;98.16
15646;BME280;7922;43.622;1.476;2023-06-14T09:14:33;99860.34;;;21.08;97.36
15646;BME280;7922;43.622;1.476;2023-06-14T09:16:58;99864.03;;;21.37;96.39
15646;BME280;7922;43.622;1.476;2023-06-14T09:19:24;99855.47;;;21.73;95.79
15646;BME280;7922;43.622;1.476;2023-06-14T09:21:50;99766.13;;;21.27;93.77
15646;BME280;7922;43.622;1.476;2023-06-14T09:24:15;99889.63;;;22.42;92.03
15646;BME280;7922;43.622;1.476;2023-06-14T09:26:40;99899.94;;;22.75;90.21
15646;BME280;7922;43.622;1.476;2023-06-14T09:29:06;99871.66;;;22.70;87.54
15646;BME280;7922;43.622;1.476;2023-06-14T09:31:31;99854.94;;;22.47;87.48
15646;BME280;7922;43.622;1.476;2023-06-14T09:33:56;99909.22;;;22.24;88.65
15646;BME280;7922;43.622;1.476;2023-06-14T09:36:23;99876.97;;;22.32;90.10
15646;BME280;7922;43.622;1.476;2023-06-14T09:38:56;99904.47;;;22.75;88.64
15646;BME280;7922;43.622;1.476;2023-06-14T09:41:36;99888.47;;;22.44;89.19
15646;BME280;7922;43.622;1.476;2023-06-14T09:44:03;99899.13;;;22.26;88.97
15646;BME280;7922;43.622;1.476;2023-06-14T09:46:30;99866.00;;;22.44;87.95
15646;BME280;7922;43.622;1.476;2023-06-14T09:48:56;99832.41;;;22.19;87.24
15646;BME280;7922;43.622;1.476;2023-06-14T09:51:25;99888.53;;;23.01;86.75
15646;BME280;7922;43.622;1.476;2023-06-14T09:53:51;99869.28;;;22.47;84.41
15646;BME280;7922;43.622;1.476;2023-06-14T09:56:37;99914.88;;;22.60;87.52
15646;BME280;7922;43.622;1.476;2023-06-14T09:59:05;99831.63;;;22.46;87.90
15646;BME280;7922;43.622;1.476;2023-06-14T10:01:31;99909.88;;;22.65;88.32
15646;BME280;7922;43.622;1.476;2023-06-14T10:04:06;99895.44;;;22.37;89.63
15646;BME280;7922;43.622;1.476;2023-06-14T10:06:39;99902.53;;;22.48;88.96
15646;BME280;7922;43.622;1.476;2023-06-14T10:09:07;99901.25;;;22.42;90.10
15646;BME280;7922;43.622;1.476;2023-06-14T10:11:35;99867.53;;;22.75;86.42
15646;BME280;7922;43.622;1.476;2023-06-14T10:14:02;99863.06;;;23.03;85.06
15646;BME280;7922;43.622;1.476;2023-06-14T10:16:39;99907.50;;;23.84;83.15
15646;BME280;7922;43.622;1.476;2023-06-14T10:19:29;99803.38;;;23.24;81.30
15646;BME280;7922;43.622;1.476;2023-06-14T10:22:06;99892.59;;;23.80;80.07
15646;BME280;7922;43.622;1.476;2023-06-14T10:24:38;99896.69;;;23.84;80.52
15646;BME280;7922;43.622;1.476;2023-06-14T10:27:06;99792.22;;;23.10;79.16
15646;BME280;7922;43.622;1.476;2023-06-14T10:29:32;99862.81;;;23.52;80.40
15646;BME280;7922;43.622;1.476;2023-06-14T10:31:59;99782.69;;;23.05;79.25
15646;BME280;7922;43.622;1.476;2023-06-14T10:34:28;99816.72;;;23.26;79.01
15646;BME280;7922;43.622;1.476;2023-06-14T10:37:04;99887.19;;;23.97;80.38
15646;BME280;7922;43.622;1.476;2023-06-14T10:39:30;99877.28;;;23.88;77.52
15646;BME280;7922;43.622;1.476;2023-06-14T10:41:57;99888.97;;;23.61;78.09
15646;BME280;7922;43.622;1.476;2023-06-14T10:46:56;99838.50;;;23.97;75.42
15646;BME280;7922;43.622;1.476;2023-06-14T10:49:43;99863.50;;;24.35;74.65
15646;BME280;7922;43.622;1.476;2023-06-14T10:52:10;99892.22;;;24.46;74.21
15646;BME280;7922;43.622;1.476;2023-06-14T10:54:36;99878.00;;;24.08;75.88
15646;BME280;7922;43.622;1.476;2023-06-14T10:57:01;99892.53;;;24.25;78.00
15646;BME280;7922;43.622;1.476;2023-06-14T10:59:27;99815.13;;;24.14;74.55
15646;BME280;7922;43.622;1.476;2023-06-14T11:02:27;99900.09;;;24.21;75.10
15646;BME280;7922;43.622;1.476;2023-06-14T11:05:04;99800.91;;;23.76;75.00
15646;BME280;7922;43.622;1.476;2023-06-14T11:10:39;99856.41;;;24.16;75.87
15646;BME280;7922;43.622;1.476;2023-06-14T11:13:05;99811.72;;;24.12;73.29
15646;BME280;7922;43.622;1.476;2023-06-14T11:15:31;99867.00;;;24.10;72.49
15646;BME280;7922;43.622;1.476;2023-06-14T11:18:01;99866.78;;;24.21;74.14
15646;BME280;7922;43.622;1.476;2023-06-14T11:20:29;99876.75;;;24.56;73.19
15646;BME280;7922;43.622;1.476;2023-06-14T11:22:54;99873.56;;;24.61;72.70
15646;BME280;7922;43.622;1.476;2023-06-14T11:25:20;99810.88;;;24.82;71.53
15646;BME280;7922;43.622;1.476;2023-06-14T11:27:45;99841.50;;;25.08;70.36
15646;BME280;7922;43.622;1.476;2023-06-14T11:30:12;99869.53;;;24.91;71.64
15646;BME280;7922;43.622;1.476;2023-06-14T11:32:38;99876.22;;;25.05;72.67
15646;BME280;7922;43.622;1.476;2023-06-14T11:35:04;99854.22;;;25.08;70.62
15646;BME280;7922;43.622;1.476;2023-06-14T11:37:29;99839.72;;;24.65;70.67
15646;BME280;7922;43.622;1.476;2023-06-14T11:39:58;99845.63;;;25.12;68.65
15646;BME280;7922;43.622;1.476;2023-06-14T11:42:26;99816.91;;;25.28;66.64
15646;BME280;7922;43.622;1.476;2023-06-14T11:44:53;99794.06;;;24.70;66.89
15646;BME280;7922;43.622;1.476;2023-06-14T11:47:18;99831.31;;;25.02;66.79
15646;BME280;7922;43.622;1.476;2023-06-14T11:49:44;99796.56;;;25.32;67.81
15646;BME280;7922;43.622;1.476;2023-06-14T11:52:09;99773.38;;;24.95;69.22
15646;BME280;7922;43.622;1.476;2023-06-14T11:54:35;99894.63;;;25.19;67.26
15646;BME280;7922;43.622;1.476;2023-06-14T11:57:00;99843.44;;;24.64;69.14
15646;BME280;7922;43.622;1.476;2023-06-14T11:59:25;99782.72;;;24.22;66.03
15646;BME280;7922;43.622;1.476;2023-06-14T12:01:53;99848.38;;;24.68;69.09
15646;BME280;7922;43.622;1.476;2023-06-14T12:04:24;99861.56;;;24.63;68.33
15646;BME280;7922;43.622;1.476;2023-06-14T12:06:51;99771.50;;;24.17;68.64
15646;BME280;7922;43.622;1.476;2023-06-14T12:09:17;99843.94;;;24.59;70.08
15646;BME280;7922;43.622;1.476;2023-06-14T12:11:42;99885.91;;;25.07;68.77
15646;BME280;7922;43.622;1.476;2023-06-14T12:14:08;99841.19;;;24.77;68.31
15646;BME280;7922;43.622;1.476;2023-06-14T12:16:37;99837.72;;;24.67;68.55
15646;BME280;7922;43.622;1.476;2023-06-14T12:19:12;99883.06;;;25.43;66.93
15646;BME280;7922;43.622;1.476;2023-06-14T12:21:38;99805.06;;;25.37;65.93
15646;BME280;7922;43.622;1.476;2023-06-14T12:24:04;99857.28;;;25.39;64.98
15646;BME280;7922;43.622;1.476;2023-06-14T12:26:29;99783.38;;;24.42;64.55
15646;BME280;7922;43.622;1.476;2023-06-14T12:28:56;99825.09;;;25.10;62.57
15646;BME280;7922;43.622;1.476;2023-06-14T12:31:21;99749.59;;;24.81;63.36
15646;BME280;7922;43.622;1.476;2023-06-14T12:33:46;99845.63;;;25.55;64.47
15646;BME280;7922;43.622;1.476;2023-06-14T12:36:12;99848.44;;;25.79;62.41
15646;BME280;7922;43.622;1.476;2023-06-14T12:38:37;99820.28;;;25.88;59.48
15646;BME280;7922;43.622;1.476;2023-06-14T12:41:03;99863.75;;;26.13;58.58
15646;BME280;7922;43.622;1.476;2023-06-14T12:43:28;99848.13;;;25.90;60.27
15646;BME280;7922;43.622;1.476;2023-06-14T12:45:54;99839.81;;;26.00;60.98
15646;BME280;7922;43.622;1.476;2023-06-14T12:48:19;99826.56;;;26.22;59.65
15646;BME280;7922;43.622;1.476;2023-06-14T12:50:45;99844.41;;;26.24;58.87
15646;BME280;7922;43.622;1.476;2023-06-14T12:53:10;99826.06;;;26.02;59.86
15646;BME280;7922;43.622;1.476;2023-06-14T12:55:36;99871.78;;;26.47;60.42
15646;BME280;7922;43.622;1.476;2023-06-14T12:58:01;99852.03;;;26.45;59.39
15646;BME280;7922;43.622;1.476;2023-06-14T13:00:26;99878.06;;;27.36;57.38
15646;BME280;7922;43.622;1.476;2023-06-14T13:02:52;99868.28;;;26.94;54.35
15646;BME280;7922;43.622;1.476;2023-06-14T13:05:17;99822.00;;;26.06;57.28
15646;BME280;7922;43.622;1.476;2023-06-14T13:07:43;99849.66;;;26.17;56.05